sensor_id;sensor_type;location;lat;lon;timestamp;P1;durP1;ratioP1;P2;durP2;ratioP2
8714;SDS011;4394;51.208;8.904;2022-07-24T00:01:11;4.00;;;3.57;;
8714;SDS011;4394;51.208;8.904;2022-07-24T00:03:59;5.00;;;3.50;;
8714;SDS011;4394;51.208;8.904;2022-07-24T00:06:47;5.23;;;3.90;;
8714;SDS011;4394;51.208;8.904;2022-07-24T00:09:37;3.93;;;3.53;;
8714;SDS011;4394;51.208;8.904;2022-07-24T00:12:25;4.10;;;3.70;;
8714;SDS011;4394;51.208;8.904;2022-07-24T00:15:14;4.33;;;3.70;;
8714;SDS011;4394;51.208;8.904;2022-07-24T00:18:03;5.07;;;3.90;;
8714;SDS011;4394;51.208;8.904;2022-07-24T00:20:51;4.53;;;4.10;;
8714;SDS011;4394;51.208;8.904;2022-07-24T00:23:40;4.50;;;3.80;;
8714;SDS011;4394;51.208;8.904;2022-07-24T00:26:30;7.17;;;3.90;;
8714;SDS011;4394;51.208;8.904;2022-07-24T00:29:19;4.10;;;3.73;;
8714;SDS011;4394;51.208;8.904;2022-07-24T00:32:07;4.73;;;3.73;;
8714;SDS011;4394;51.208;8.904;2022-07-24T00:34:56;4.00;;;3.60;;
8714;SDS011;4394;51.208;8.904;2022-07-24T00:37:44;4.13;;;3.73;;
8714;SDS011;4394;51.208;8.904;2022-07-24T00:40:33;4.33;;;3.80;;
8714;SDS011;4394;51.208;8.904;2022-07-24T00:43:23;5.20;;;4.03;;
8714;SDS011;4394;51.208;8.904;2022-07-24T00:46:11;4.70;;;4.20;;
8714;SDS011;4394;51.208;8.904;2022-07-24T00:49:01;4.73;;;3.77;;
8714;SDS011;4394;51.208;8.904;2022-07-24T00:52:03;4.40;;;3.80;;
8714;SDS011;4394;51.208;8.904;2022-07-24T00:54:52;4.33;;;3.60;;
8714;SDS011;4394;51.208;8.904;2022-07-24T00:57:42;5.17;;;4.17;;
8714;SDS011;4394;51.208;8.904;2022-07-24T01:00:34;4.30;;;3.90;;
8714;SDS011;4394;51.208;8.904;2022-07-24T01:03:23;5.07;;;4.10;;
8714;SDS011;4394;51.208;8.904;2022-07-24T01:06:11;5.30;;;4.17;;
8714;SDS011;4394;51.208;8.904;2022-07-24T01:09:00;4.90;;;4.40;;
8714;SDS011;4394;51.208;8.904;2022-07-24T01:11:49;4.40;;;3.60;;
8714;SDS011;4394;51.208;8.904;2022-07-24T01:14:38;5.07;;;3.97;;
8714;SDS011;4394;51.208;8.904;2022-07-24T01:17:30;5.13;;;3.97;;
8714;SDS011;4394;51.208;8.904;2022-07-24T01:20:18;6.43;;;3.70;;
8714;SDS011;4394;51.208;8.904;2022-07-24T01:23:08;5.03;;;4.10;;
8714;SDS011;4394;51.208;8.904;2022-07-24T01:25:57;4.13;;;3.77;;
8714;SDS011;4394;51.208;8.904;2022-07-24T01:28:45;6.20;;;4.40;;
8714;SDS011;4394;51.208;8.904;2022-07-24T01:31:34;4.07;;;3.67;;
8714;SDS011;4394;51.208;8.904;2022-07-24T01:34:23;4.50;;;3.97;;
8714;SDS011;4394;51.208;8.904;2022-07-24T01:37:11;5.10;;;4.50;;
8714;SDS011;4394;51.208;8.904;2022-07-24T01:40:01;4.63;;;3.70;;
8714;SDS011;4394;51.208;8.904;2022-07-24T01:42:50;4.07;;;3.73;;
8714;SDS011;4394;51.208;8.904;2022-07-24T01:45:38;3.77;;;3.47;;
8714;SDS011;4394;51.208;8.904;2022-07-24T01:48:26;4.33;;;3.57;;
8714;SDS011;4394;51.208;8.904;2022-07-24T01:51:15;4.47;;;3.60;;
8714;SDS011;4394;51.208;8.904;2022-07-24T01:54:04;4.63;;;3.70;;
8714;SDS011;4394;51.208;8.904;2022-07-24T01:56:53;5.17;;;4.03;;
8714;SDS011;4394;51.208;8.904;2022-07-24T01:59:41;3.80;;;3.50;;
8714;SDS011;4394;51.208;8.904;2022-07-24T02:02:30;4.63;;;3.40;;
8714;SDS011;4394;51.208;8.904;2022-07-24T02:05:18;6.13;;;3.57;;
8714;SDS011;4394;51.208;8.904;2022-07-24T02:08:07;3.67;;;3.37;;
8714;SDS011;4394;51.208;8.904;2022-07-24T02:10:55;4.20;;;3.80;;
8714;SDS011;4394;51.208;8.904;2022-07-24T02:13:45;4.27;;;3.57;;
8714;SDS011;4394;51.208;8.904;2022-07-24T02:16:33;4.07;;;3.70;;
8714;SDS011;4394;51.208;8.904;2022-07-24T02:19:21;4.13;;;3.73;;
8714;SDS011;4394;51.208;8.904;2022-07-24T02:22:11;4.20;;;3.73;;
8714;SDS011;4394;51.208;8.904;2022-07-24T02:24:59;5.30;;;3.73;;
8714;SDS011;4394;51.208;8.904;2022-07-24T02:27:47;4.20;;;3.63;;
8714;SDS011;4394;51.208;8.904;2022-07-24T02:30:37;5.07;;;3.83;;
8714;SDS011;4394;51.208;8.904;2022-07-24T02:33:27;4.83;;;3.97;;
8714;SDS011;4394;51.208;8.904;2022-07-24T02:36:15;3.97;;;3.57;;
8714;SDS011;4394;51.208;8.904;2022-07-24T02:39:05;4.77;;;4.03;;
8714;SDS011;4394;51.208;8.904;2022-07-24T02:41:53;3.90;;;3.50;;
8714;SDS011;4394;51.208;8.904;2022-07-24T02:44:41;4.23;;;3.83;;
8714;SDS011;4394;51.208;8.904;2022-07-24T02:47:31;4.87;;;3.83;;
8714;SDS011;4394;51.208;8.904;2022-07-24T02:50:19;4.20;;;3.80;;
8714;SDS011;4394;51.208;8.904;2022-07-24T02:53:08;5.37;;;3.80;;
8714;SDS011;4394;51.208;8.904;2022-07-24T02:55:57;5.27;;;3.67;;
8714;SDS011;4394;51.208;8.904;2022-07-24T02:58:45;4.67;;;3.93;;
8714;SDS011;4394;51.208;8.904;2022-07-24T03:01:33;4.43;;;3.83;;
8714;SDS011;4394;51.208;8.904;2022-07-24T03:04:23;4.53;;;3.50;;
8714;SDS011;4394;51.208;8.904;2022-07-24T03:07:11;5.40;;;4.03;;
8714;SDS011;4394;51.208;8.904;2022-07-24T03:09:59;4.27;;;3.87;;
8714;SDS011;4394;51.208;8.904;2022-07-24T03:12:48;4.00;;;3.60;;
8714;SDS011;4394;51.208;8.904;2022-07-24T03:15:36;4.10;;;3.70;;
8714;SDS011;4394;51.208;8.904;2022-07-24T03:18:24;3.90;;;3.37;;
8714;SDS011;4394;51.208;8.904;2022-07-24T03:21:13;4.37;;;3.83;;
8714;SDS011;4394;51.208;8.904;2022-07-24T03:24:22;4.33;;;3.67;;
8714;SDS011;4394;51.208;8.904;2022-07-24T03:27:10;4.00;;;3.53;;
8714;SDS011;4394;51.208;8.904;2022-07-24T03:29:58;3.77;;;3.47;;
8714;SDS011;4394;51.208;8.904;2022-07-24T03:32:46;5.13;;;3.90;;
8714;SDS011;4394;51.208;8.904;2022-07-24T03:35:34;4.43;;;3.80;;
8714;SDS011;4394;51.208;8.904;2022-07-24T03:38:25;4.67;;;3.60;;
8714;SDS011;4394;51.208;8.904;2022-07-24T03:41:13;4.30;;;3.83;;
8714;SDS011;4394;51.208;8.904;2022-07-24T03:44:01;4.00;;;3.60;;
8714;SDS011;4394;51.208;8.904;2022-07-24T03:46:49;4.60;;;3.90;;
8714;SDS011;4394;51.208;8.904;2022-07-24T03:49:37;3.70;;;3.40;;
8714;SDS011;4394;51.208;8.904;2022-07-24T03:52:25;7.57;;;5.07;;
8714;SDS011;4394;51.208;8.904;2022-07-24T03:55:14;3.90;;;3.50;;
8714;SDS011;4394;51.208;8.904;2022-07-24T03:58:02;4.23;;;3.37;;
8714;SDS011;4394;51.208;8.904;2022-07-24T04:00:50;4.03;;;3.60;;
8714;SDS011;4394;51.208;8.904;2022-07-24T04:03:38;4.90;;;3.50;;
8714;SDS011;4394;51.208;8.904;2022-07-24T04:06:26;3.70;;;3.40;;
8714;SDS011;4394;51.208;8.904;2022-07-24T04:09:14;3.97;;;3.33;;
8714;SDS011;4394;51.208;8.904;2022-07-24T04:12:18;4.60;;;3.50;;
8714;SDS011;4394;51.208;8.904;2022-07-24T04:15:07;4.70;;;4.30;;
8714;SDS011;4394;51.208;8.904;2022-07-24T04:17:56;4.77;;;4.27;;
8714;SDS011;4394;51.208;8.904;2022-07-24T04:20:44;4.40;;;4.00;;
8714;SDS011;4394;51.208;8.904;2022-07-24T04:23:32;5.33;;;3.63;;
8714;SDS011;4394;51.208;8.904;2022-07-24T04:26:20;4.07;;;3.67;;
8714;SDS011;4394;51.208;8.904;2022-07-24T04:29:09;4.80;;;3.80;;
8714;SDS011;4394;51.208;8.904;2022-07-24T04:31:57;4.50;;;3.90;;
8714;SDS011;4394;51.208;8.904;2022-07-24T04:34:45;3.97;;;3.23;;
8714;SDS011;4394;51.208;8.904;2022-07-24T04:37:33;4.53;;;3.60;;
8714;SDS011;4394;51.208;8.904;2022-07-24T04:40:21;5.27;;;4.00;;
8714;SDS011;4394;51.208;8.904;2022-07-24T04:43:09;3.77;;;3.47;;
8714;SDS011;4394;51.208;8.904;2022-07-24T04:45:59;5.63;;;3.87;;
8714;SDS011;4394;51.208;8.904;2022-07-24T04:48:47;5.37;;;3.70;;
8714;SDS011;4394;51.208;8.904;2022-07-24T04:51:35;4.90;;;3.90;;
8714;SDS011;4394;51.208;8.904;2022-07-24T04:54:23;5.47;;;3.60;;
8714;SDS011;4394;51.208;8.904;2022-07-24T04:57:11;4.57;;;4.00;;
8714;SDS011;4394;51.208;8.904;2022-07-24T04:59:59;4.47;;;3.67;;
8714;SDS011;4394;51.208;8.904;2022-07-24T05:02:48;5.53;;;3.93;;
8714;SDS011;4394;51.208;8.904;2022-07-24T05:05:36;5.37;;;3.90;;
8714;SDS011;4394;51.208;8.904;2022-07-24T05:08:24;4.87;;;3.60;;
8714;SDS011;4394;51.208;8.904;2022-07-24T05:11:12;5.63;;;4.00;;
8714;SDS011;4394;51.208;8.904;2022-07-24T05:14:00;6.90;;;4.10;;
8714;SDS011;4394;51.208;8.904;2022-07-24T05:16:48;6.73;;;4.00;;
8714;SDS011;4394;51.208;8.904;2022-07-24T05:19:37;5.60;;;3.33;;
8714;SDS011;4394;51.208;8.904;2022-07-24T05:22:25;4.70;;;3.83;;
8714;SDS011;4394;51.208;8.904;2022-07-24T05:25:13;4.97;;;3.97;;
8714;SDS011;4394;51.208;8.904;2022-07-24T05:28:02;3.60;;;3.27;;
8714;SDS011;4394;51.208;8.904;2022-07-24T05:30:50;4.70;;;3.53;;
8714;SDS011;4394;51.208;8.904;2022-07-24T05:33:38;3.90;;;3.03;;
8714;SDS011;4394;51.208;8.904;2022-07-24T05:36:28;3.50;;;3.20;;
8714;SDS011;4394;51.208;8.904;2022-07-24T05:39:16;4.00;;;3.60;;
8714;SDS011;4394;51.208;8.904;2022-07-24T05:42:04;3.73;;;3.33;;
8714;SDS011;4394;51.208;8.904;2022-07-24T05:44:52;5.80;;;3.60;;
8714;SDS011;4394;51.208;8.904;2022-07-24T05:47:40;3.27;;;3.00;;
8714;SDS011;4394;51.208;8.904;2022-07-24T05:50:28;5.20;;;3.33;;
8714;SDS011;4394;51.208;8.904;2022-07-24T05:53:17;3.53;;;3.10;;
8714;SDS011;4394;51.208;8.904;2022-07-24T05:56:06;4.00;;;3.07;;
8714;SDS011;4394;51.208;8.904;2022-07-24T05:58:54;4.00;;;3.60;;
8714;SDS011;4394;51.208;8.904;2022-07-24T06:01:43;3.70;;;3.10;;
8714;SDS011;4394;51.208;8.904;2022-07-24T06:04:31;3.90;;;3.07;;
8714;SDS011;4394;51.208;8.904;2022-07-24T06:07:19;4.63;;;3.20;;
8714;SDS011;4394;51.208;8.904;2022-07-24T06:10:09;4.63;;;3.40;;
8714;SDS011;4394;51.208;8.904;2022-07-24T06:13:00;3.97;;;3.17;;
8714;SDS011;4394;51.208;8.904;2022-07-24T06:15:49;4.50;;;3.50;;
8714;SDS011;4394;51.208;8.904;2022-07-24T06:18:37;3.53;;;3.23;;
8714;SDS011;4394;51.208;8.904;2022-07-24T06:21:26;3.93;;;3.53;;
8714;SDS011;4394;51.208;8.904;2022-07-24T06:24:14;3.53;;;3.13;;
8714;SDS011;4394;51.208;8.904;2022-07-24T06:27:04;3.50;;;3.13;;
8714;SDS011;4394;51.208;8.904;2022-07-24T06:29:58;4.13;;;2.97;;
8714;SDS011;4394;51.208;8.904;2022-07-24T06:32:46;3.50;;;3.20;;
8714;SDS011;4394;51.208;8.904;2022-07-24T06:35:35;3.60;;;2.90;;
8714;SDS011;4394;51.208;8.904;2022-07-24T06:38:24;3.20;;;2.57;;
8714;SDS011;4394;51.208;8.904;2022-07-24T06:41:12;3.43;;;2.93;;
8714;SDS011;4394;51.208;8.904;2022-07-24T06:44:02;2.70;;;2.50;;
8714;SDS011;4394;51.208;8.904;2022-07-24T06:46:50;5.60;;;2.60;;
8714;SDS011;4394;51.208;8.904;2022-07-24T06:49:40;3.40;;;2.70;;
8714;SDS011;4394;51.208;8.904;2022-07-24T06:52:28;3.10;;;2.80;;
8714;SDS011;4394;51.208;8.904;2022-07-24T06:55:16;3.40;;;2.67;;
8714;SDS011;4394;51.208;8.904;2022-07-24T06:58:04;3.00;;;2.70;;
8714;SDS011;4394;51.208;8.904;2022-07-24T07:00:54;3.00;;;2.70;;
8714;SDS011;4394;51.208;8.904;2022-07-24T07:03:42;2.90;;;2.60;;
8714;SDS011;4394;51.208;8.904;2022-07-24T07:06:30;3.83;;;2.73;;
8714;SDS011;4394;51.208;8.904;2022-07-24T07:09:19;3.23;;;2.37;;
8714;SDS011;4394;51.208;8.904;2022-07-24T07:12:07;3.43;;;2.50;;
8714;SDS011;4394;51.208;8.904;2022-07-24T07:14:57;3.63;;;2.60;;
8714;SDS011;4394;51.208;8.904;2022-07-24T07:17:48;2.73;;;2.50;;
8714;SDS011;4394;51.208;8.904;2022-07-24T07:20:36;3.00;;;2.60;;
8714;SDS011;4394;51.208;8.904;2022-07-24T07:23:24;3.40;;;2.87;;
8714;SDS011;4394;51.208;8.904;2022-07-24T07:26:16;3.77;;;2.43;;
8714;SDS011;4394;51.208;8.904;2022-07-24T07:29:05;4.77;;;2.90;;
8714;SDS011;4394;51.208;8.904;2022-07-24T07:31:54;4.10;;;2.90;;
8714;SDS011;4394;51.208;8.904;2022-07-24T07:34:45;4.37;;;2.83;;
8714;SDS011;4394;51.208;8.904;2022-07-24T07:37:33;3.33;;;3.03;;
8714;SDS011;4394;51.208;8.904;2022-07-24T07:40:21;3.30;;;3.00;;
8714;SDS011;4394;51.208;8.904;2022-07-24T07:43:12;4.37;;;2.87;;
8714;SDS011;4394;51.208;8.904;2022-07-24T07:46:01;4.40;;;2.87;;
8714;SDS011;4394;51.208;8.904;2022-07-24T07:48:48;2.87;;;2.67;;
8714;SDS011;4394;51.208;8.904;2022-07-24T07:51:38;4.13;;;2.97;;
8714;SDS011;4394;51.208;8.904;2022-07-24T07:54:29;5.23;;;3.20;;
8714;SDS011;4394;51.208;8.904;2022-07-24T07:57:17;3.47;;;3.17;;
8714;SDS011;4394;51.208;8.904;2022-07-24T08:00:06;3.87;;;3.17;;
8714;SDS011;4394;51.208;8.904;2022-07-24T08:02:55;3.63;;;3.33;;
8714;SDS011;4394;51.208;8.904;2022-07-24T08:05:43;6.20;;;3.23;;
8714;SDS011;4394;51.208;8.904;2022-07-24T08:08:33;4.23;;;3.57;;
8714;SDS011;4394;51.208;8.904;2022-07-24T08:11:25;4.13;;;3.50;;
8714;SDS011;4394;51.208;8.904;2022-07-24T08:14:13;4.30;;;3.83;;
8714;SDS011;4394;51.208;8.904;2022-07-24T08:17:02;3.87;;;3.57;;
8714;SDS011;4394;51.208;8.904;2022-07-24T08:19:51;4.73;;;3.90;;
8714;SDS011;4394;51.208;8.904;2022-07-24T08:22:40;4.60;;;4.17;;
8714;SDS011;4394;51.208;8.904;2022-07-24T08:25:30;4.67;;;4.10;;
8714;SDS011;4394;51.208;8.904;2022-07-24T08:28:19;5.70;;;4.13;;
8714;SDS011;4394;51.208;8.904;2022-07-24T08:31:09;5.43;;;4.17;;
8714;SDS011;4394;51.208;8.904;2022-07-24T08:34:00;4.30;;;3.87;;
8714;SDS011;4394;51.208;8.904;2022-07-24T08:36:48;6.37;;;4.80;;
8714;SDS011;4394;51.208;8.904;2022-07-24T08:39:37;4.83;;;3.70;;
8714;SDS011;4394;51.208;8.904;2022-07-24T08:42:26;7.27;;;5.27;;
8714;SDS011;4394;51.208;8.904;2022-07-24T08:45:16;4.50;;;4.10;;
8714;SDS011;4394;51.208;8.904;2022-07-24T08:48:04;4.37;;;3.90;;
8714;SDS011;4394;51.208;8.904;2022-07-24T08:50:55;4.40;;;4.00;;
8714;SDS011;4394;51.208;8.904;2022-07-24T08:53:46;7.77;;;3.90;;
8714;SDS011;4394;51.208;8.904;2022-07-24T08:56:37;8.53;;;4.20;;
8714;SDS011;4394;51.208;8.904;2022-07-24T08:59:27;4.47;;;4.07;;
8714;SDS011;4394;51.208;8.904;2022-07-24T09:02:17;4.60;;;4.20;;
8714;SDS011;4394;51.208;8.904;2022-07-24T09:05:06;5.23;;;4.57;;
8714;SDS011;4394;51.208;8.904;2022-07-24T09:08:05;4.90;;;4.40;;
8714;SDS011;4394;51.208;8.904;2022-07-24T09:10:55;5.00;;;4.43;;
8714;SDS011;4394;51.208;8.904;2022-07-24T09:13:45;4.00;;;3.70;;
8714;SDS011;4394;51.208;8.904;2022-07-24T09:16:56;4.60;;;4.13;;
8714;SDS011;4394;51.208;8.904;2022-07-24T09:19:54;7.60;;;4.50;;
8714;SDS011;4394;51.208;8.904;2022-07-24T09:22:46;5.07;;;4.20;;
8714;SDS011;4394;51.208;8.904;2022-07-24T09:25:36;4.87;;;4.47;;
8714;SDS011;4394;51.208;8.904;2022-07-24T09:28:25;4.87;;;4.33;;
8714;SDS011;4394;51.208;8.904;2022-07-24T09:31:14;4.43;;;3.90;;
8714;SDS011;4394;51.208;8.904;2022-07-24T09:34:09;4.77;;;4.33;;
8714;SDS011;4394;51.208;8.904;2022-07-24T09:36:58;4.60;;;4.17;;
8714;SDS011;4394;51.208;8.904;2022-07-24T09:39:47;4.60;;;3.97;;
8714;SDS011;4394;51.208;8.904;2022-07-24T09:42:36;4.63;;;4.23;;
8714;SDS011;4394;51.208;8.904;2022-07-24T09:45:29;4.63;;;4.23;;
8714;SDS011;4394;51.208;8.904;2022-07-24T09:48:51;5.13;;;4.63;;
8714;SDS011;4394;51.208;8.904;2022-07-24T09:51:40;5.50;;;4.70;;
8714;SDS011;4394;51.208;8.904;2022-07-24T09:54:30;5.40;;;4.63;;
8714;SDS011;4394;51.208;8.904;2022-07-24T09:57:20;6.07;;;4.50;;
8714;SDS011;4394;51.208;8.904;2022-07-24T10:00:10;7.10;;;4.50;;
8714;SDS011;4394;51.208;8.904;2022-07-24T10:03:01;4.83;;;4.43;;
8714;SDS011;4394;51.208;8.904;2022-07-24T10:05:56;4.93;;;4.33;;
8714;SDS011;4394;51.208;8.904;2022-07-24T10:08:46;4.57;;;4.17;;
8714;SDS011;4394;51.208;8.904;2022-07-24T10:11:35;4.77;;;4.17;;
8714;SDS011;4394;51.208;8.904;2022-07-24T10:14:26;4.70;;;4.30;;
8714;SDS011;4394;51.208;8.904;2022-07-24T10:17:15;5.40;;;4.90;;
8714;SDS011;4394;51.208;8.904;2022-07-24T10:20:11;5.43;;;4.80;;
8714;SDS011;4394;51.208;8.904;2022-07-24T10:23:26;4.40;;;4.00;;
8714;SDS011;4394;51.208;8.904;2022-07-24T10:26:26;4.63;;;4.23;;
8714;SDS011;4394;51.208;8.904;2022-07-24T10:29:22;4.97;;;4.47;;
8714;SDS011;4394;51.208;8.904;2022-07-24T10:32:12;5.27;;;4.73;;
8714;SDS011;4394;51.208;8.904;2022-07-24T10:35:13;4.90;;;4.43;;
8714;SDS011;4394;51.208;8.904;2022-07-24T10:38:05;5.80;;;5.17;;
8714;SDS011;4394;51.208;8.904;2022-07-24T10:40:59;5.03;;;4.37;;
8714;SDS011;4394;51.208;8.904;2022-07-24T10:44:11;5.13;;;4.63;;
8714;SDS011;4394;51.208;8.904;2022-07-24T10:47:05;4.93;;;4.47;;
8714;SDS011;4394;51.208;8.904;2022-07-24T10:49:54;5.68;;;4.95;;
8714;SDS011;4394;51.208;8.904;2022-07-24T10:52:45;6.85;;;4.88;;
8714;SDS011;4394;51.208;8.904;2022-07-24T10:55:34;4.78;;;4.38;;
8714;SDS011;4394;51.208;8.904;2022-07-24T10:58:24;5.30;;;4.78;;
8714;SDS011;4394;51.208;8.904;2022-07-24T11:01:26;4.82;;;4.43;;
8714;SDS011;4394;51.208;8.904;2022-07-24T11:04:26;5.15;;;4.47;;
8714;SDS011;4394;51.208;8.904;2022-07-24T11:07:18;5.07;;;4.45;;
8714;SDS011;4394;51.208;8.904;2022-07-24T11:10:08;5.10;;;4.70;;
8714;SDS011;4394;51.208;8.904;2022-07-24T11:12:56;4.82;;;4.40;;
8714;SDS011;4394;51.208;8.904;2022-07-24T11:19:27;4.97;;;4.47;;
8714;SDS011;4394;51.208;8.904;2022-07-24T11:22:16;6.28;;;4.80;;
8714;SDS011;4394;51.208;8.904;2022-07-24T11:25:05;4.90;;;4.30;;
8714;SDS011;4394;51.208;8.904;2022-07-24T11:28:12;5.22;;;4.40;;
8714;SDS011;4394;51.208;8.904;2022-07-24T11:31:01;4.93;;;4.32;;
8714;SDS011;4394;51.208;8.904;2022-07-24T11:33:51;4.90;;;4.50;;
8714;SDS011;4394;51.208;8.904;2022-07-24T11:36:40;5.40;;;4.38;;
8714;SDS011;4394;51.208;8.904;2022-07-24T11:39:32;6.00;;;4.50;;
8714;SDS011;4394;51.208;8.904;2022-07-24T11:42:23;4.80;;;4.40;;
8714;SDS011;4394;51.208;8.904;2022-07-24T11:45:12;5.07;;;4.63;;
8714;SDS011;4394;51.208;8.904;2022-07-24T11:48:01;5.30;;;4.80;;
8714;SDS011;4394;51.208;8.904;2022-07-24T11:50:49;6.47;;;5.22;;
8714;SDS011;4394;51.208;8.904;2022-07-24T11:54:09;5.07;;;4.57;;
8714;SDS011;4394;51.208;8.904;2022-07-24T11:56:58;4.63;;;4.22;;
8714;SDS011;4394;51.208;8.904;2022-07-24T11:59:49;4.80;;;4.40;;
8714;SDS011;4394;51.208;8.904;2022-07-24T12:02:42;4.97;;;4.40;;
8714;SDS011;4394;51.208;8.904;2022-07-24T12:05:31;4.78;;;4.38;;
8714;SDS011;4394;51.208;8.904;2022-07-24T12:08:21;5.05;;;4.65;;
8714;SDS011;4394;51.208;8.904;2022-07-24T12:11:19;4.80;;;4.40;;
8714;SDS011;4394;51.208;8.904;2022-07-24T12:14:13;6.70;;;5.18;;
8714;SDS011;4394;51.208;8.904;2022-07-24T12:17:04;4.95;;;4.60;;
8714;SDS011;4394;51.208;8.904;2022-07-24T12:19:53;5.00;;;4.60;;
8714;SDS011;4394;51.208;8.904;2022-07-24T12:22:43;5.35;;;4.85;;
8714;SDS011;4394;51.208;8.904;2022-07-24T12:25:32;5.95;;;5.10;;
8714;SDS011;4394;51.208;8.904;2022-07-24T12:28:20;4.55;;;4.15;;
8714;SDS011;4394;51.208;8.904;2022-07-24T12:31:09;5.05;;;4.55;;
8714;SDS011;4394;51.208;8.904;2022-07-24T12:33:59;5.40;;;4.38;;
8714;SDS011;4394;51.208;8.904;2022-07-24T12:36:47;4.95;;;4.55;;
8714;SDS011;4394;51.208;8.904;2022-07-24T12:39:44;5.38;;;4.90;;
8714;SDS011;4394;51.208;8.904;2022-07-24T12:42:32;4.63;;;4.22;;
8714;SDS011;4394;51.208;8.904;2022-07-24T12:45:21;5.07;;;4.68;;
8714;SDS011;4394;51.208;8.904;2022-07-24T12:48:11;4.82;;;4.40;;
8714;SDS011;4394;51.208;8.904;2022-07-24T12:51:08;5.25;;;4.75;;
8714;SDS011;4394;51.208;8.904;2022-07-24T12:53:57;4.90;;;4.50;;
8714;SDS011;4394;51.208;8.904;2022-07-24T12:56:48;5.50;;;4.93;;
8714;SDS011;4394;51.208;8.904;2022-07-24T12:59:39;4.65;;;4.28;;
8714;SDS011;4394;51.208;8.904;2022-07-24T13:02:30;5.32;;;4.82;;
8714;SDS011;4394;51.208;8.904;2022-07-24T13:05:35;7.03;;;5.45;;
8714;SDS011;4394;51.208;8.904;2022-07-24T13:08:25;5.40;;;4.85;;
8714;SDS011;4394;51.208;8.904;2022-07-24T13:11:13;5.38;;;4.97;;
8714;SDS011;4394;51.208;8.904;2022-07-24T13:14:02;5.43;;;4.93;;
8714;SDS011;4394;51.208;8.904;2022-07-24T13:16:53;5.57;;;5.07;;
8714;SDS011;4394;51.208;8.904;2022-07-24T13:19:43;4.97;;;4.57;;
8714;SDS011;4394;51.208;8.904;2022-07-24T13:22:33;5.13;;;4.60;;
8714;SDS011;4394;51.208;8.904;2022-07-24T13:25:23;7.53;;;4.88;;
8714;SDS011;4394;51.208;8.904;2022-07-24T13:28:11;5.15;;;4.65;;
8714;SDS011;4394;51.208;8.904;2022-07-24T13:31:00;5.63;;;5.00;;
8714;SDS011;4394;51.208;8.904;2022-07-24T13:33:48;5.38;;;4.88;;
8714;SDS011;4394;51.208;8.904;2022-07-24T13:36:37;6.15;;;5.00;;
8714;SDS011;4394;51.208;8.904;2022-07-24T13:39:27;5.32;;;4.93;;
8714;SDS011;4394;51.208;8.904;2022-07-24T13:42:16;7.30;;;5.38;;
8714;SDS011;4394;51.208;8.904;2022-07-24T13:45:04;5.72;;;5.32;;
8714;SDS011;4394;51.208;8.904;2022-07-24T13:47:54;5.63;;;5.07;;
8714;SDS011;4394;51.208;8.904;2022-07-24T13:50:41;4.97;;;4.57;;
8714;SDS011;4394;51.208;8.904;2022-07-24T13:53:30;5.25;;;4.82;;
8714;SDS011;4394;51.208;8.904;2022-07-24T13:56:20;5.85;;;4.85;;
8714;SDS011;4394;51.208;8.904;2022-07-24T13:59:11;4.95;;;4.55;;
8714;SDS011;4394;51.208;8.904;2022-07-24T14:02:00;5.43;;;5.03;;
8714;SDS011;4394;51.208;8.904;2022-07-24T14:04:48;4.43;;;4.13;;
8714;SDS011;4394;51.208;8.904;2022-07-24T14:07:36;5.22;;;4.82;;
8714;SDS011;4394;51.208;8.904;2022-07-24T14:10:25;5.47;;;5.00;;
8714;SDS011;4394;51.208;8.904;2022-07-24T14:13:15;6.05;;;4.82;;
8714;SDS011;4394;51.208;8.904;2022-07-24T14:16:05;6.43;;;5.35;;
8714;SDS011;4394;51.208;8.904;2022-07-24T14:18:54;6.10;;;5.47;;
8714;SDS011;4394;51.208;8.904;2022-07-24T14:21:42;4.93;;;4.53;;
8714;SDS011;4394;51.208;8.904;2022-07-24T14:24:34;5.22;;;4.82;;
8714;SDS011;4394;51.208;8.904;2022-07-24T14:27:26;5.13;;;4.63;;
8714;SDS011;4394;51.208;8.904;2022-07-24T14:30:16;5.93;;;5.35;;
8714;SDS011;4394;51.208;8.904;2022-07-24T14:33:05;5.72;;;4.80;;
8714;SDS011;4394;51.208;8.904;2022-07-24T14:35:53;5.07;;;4.63;;
8714;SDS011;4394;51.208;8.904;2022-07-24T14:38:41;6.28;;;4.90;;
8714;SDS011;4394;51.208;8.904;2022-07-24T14:41:29;5.40;;;5.00;;
8714;SDS011;4394;51.208;8.904;2022-07-24T14:44:18;5.28;;;4.82;;
8714;SDS011;4394;51.208;8.904;2022-07-24T14:47:06;5.68;;;4.88;;
8714;SDS011;4394;51.208;8.904;2022-07-24T14:49:55;5.28;;;4.85;;
8714;SDS011;4394;51.208;8.904;2022-07-24T14:52:43;5.35;;;4.85;;
8714;SDS011;4394;51.208;8.904;2022-07-24T14:55:31;4.93;;;4.60;;
8714;SDS011;4394;51.208;8.904;2022-07-24T14:58:19;5.28;;;4.80;;
8714;SDS011;4394;51.208;8.904;2022-07-24T15:01:07;4.75;;;4.35;;
8714;SDS011;4394;51.208;8.904;2022-07-24T15:03:55;5.20;;;4.80;;
8714;SDS011;4394;51.208;8.904;2022-07-24T15:06:45;7.25;;;5.05;;
8714;SDS011;4394;51.208;8.904;2022-07-24T15:09:34;5.70;;;5.20;;
8714;SDS011;4394;51.208;8.904;2022-07-24T15:12:22;5.88;;;5.38;;
8714;SDS011;4394;51.208;8.904;2022-07-24T15:15:10;5.35;;;4.95;;
8714;SDS011;4394;51.208;8.904;2022-07-24T15:17:58;5.25;;;4.75;;
8714;SDS011;4394;51.208;8.904;2022-07-24T15:20:46;5.45;;;5.00;;
8714;SDS011;4394;51.208;8.904;2022-07-24T15:23:36;5.13;;;4.72;;
8714;SDS011;4394;51.208;8.904;2022-07-24T15:26:24;5.95;;;5.35;;
8714;SDS011;4394;51.208;8.904;2022-07-24T15:29:12;4.95;;;4.43;;
8714;SDS011;4394;51.208;8.904;2022-07-24T15:32:03;6.03;;;5.07;;
8714;SDS011;4394;51.208;8.904;2022-07-24T15:34:53;5.35;;;4.85;;
8714;SDS011;4394;51.208;8.904;2022-07-24T15:37:41;6.25;;;5.72;;
8714;SDS011;4394;51.208;8.904;2022-07-24T15:40:31;5.47;;;5.07;;
8714;SDS011;4394;51.208;8.904;2022-07-24T15:43:19;5.03;;;4.63;;
8714;SDS011;4394;51.208;8.904;2022-07-24T15:46:08;4.80;;;4.40;;
8714;SDS011;4394;51.208;8.904;2022-07-24T15:48:57;5.65;;;5.15;;
8714;SDS011;4394;51.208;8.904;2022-07-24T15:51:49;6.47;;;5.05;;
8714;SDS011;4394;51.208;8.904;2022-07-24T15:54:37;6.22;;;5.10;;
8714;SDS011;4394;51.208;8.904;2022-07-24T15:57:27;5.53;;;4.90;;
8714;SDS011;4394;51.208;8.904;2022-07-24T16:00:17;5.05;;;4.65;;
8714;SDS011;4394;51.208;8.904;2022-07-24T16:03:05;5.35;;;4.85;;
8714;SDS011;4394;51.208;8.904;2022-07-24T16:05:53;5.22;;;4.82;;
8714;SDS011;4394;51.208;8.904;2022-07-24T16:08:41;5.10;;;4.60;;
8714;SDS011;4394;51.208;8.904;2022-07-24T16:11:30;5.40;;;4.97;;
8714;SDS011;4394;51.208;8.904;2022-07-24T16:14:19;5.07;;;4.68;;
8714;SDS011;4394;51.208;8.904;2022-07-24T16:17:07;5.75;;;5.00;;
8714;SDS011;4394;51.208;8.904;2022-07-24T16:19:56;6.30;;;5.68;;
8714;SDS011;4394;51.208;8.904;2022-07-24T16:22:48;5.28;;;4.88;;
8714;SDS011;4394;51.208;8.904;2022-07-24T16:25:41;4.88;;;4.55;;
8714;SDS011;4394;51.208;8.904;2022-07-24T16:28:29;5.50;;;5.10;;
8714;SDS011;4394;51.208;8.904;2022-07-24T16:31:20;5.20;;;4.80;;
8714;SDS011;4394;51.208;8.904;2022-07-24T16:34:09;5.25;;;4.75;;
8714;SDS011;4394;51.208;8.904;2022-07-24T16:36:58;5.53;;;5.03;;
8714;SDS011;4394;51.208;8.904;2022-07-24T16:39:46;5.50;;;5.00;;
8714;SDS011;4394;51.208;8.904;2022-07-24T16:42:34;5.53;;;5.03;;
8714;SDS011;4394;51.208;8.904;2022-07-24T16:45:22;5.13;;;4.72;;
8714;SDS011;4394;51.208;8.904;2022-07-24T16:48:28;4.97;;;4.57;;
8714;SDS011;4394;51.208;8.904;2022-07-24T16:51:16;5.22;;;4.82;;
8714;SDS011;4394;51.208;8.904;2022-07-24T16:54:26;4.82;;;4.53;;
8714;SDS011;4394;51.208;8.904;2022-07-24T16:57:14;5.10;;;4.78;;
8714;SDS011;4394;51.208;8.904;2022-07-24T17:00:03;5.20;;;4.80;;
8714;SDS011;4394;51.208;8.904;2022-07-24T17:02:54;5.00;;;4.60;;
8714;SDS011;4394;51.208;8.904;2022-07-24T17:05:45;5.38;;;4.97;;
8714;SDS011;4394;51.208;8.904;2022-07-24T17:08:33;4.85;;;4.55;;
8714;SDS011;4394;51.208;8.904;2022-07-24T17:11:21;5.20;;;4.80;;
8714;SDS011;4394;51.208;8.904;2022-07-24T17:14:09;5.10;;;4.70;;
8714;SDS011;4394;51.208;8.904;2022-07-24T17:16:57;6.00;;;4.95;;
8714;SDS011;4394;51.208;8.904;2022-07-24T17:19:45;7.57;;;5.30;;
8714;SDS011;4394;51.208;8.904;2022-07-24T17:22:34;5.78;;;5.30;;
8714;SDS011;4394;51.208;8.904;2022-07-24T17:25:23;4.53;;;4.13;;
8714;SDS011;4394;51.208;8.904;2022-07-24T17:28:13;5.28;;;4.90;;
8714;SDS011;4394;51.208;8.904;2022-07-24T17:31:02;5.07;;;4.68;;
8714;SDS011;4394;51.208;8.904;2022-07-24T17:33:51;5.40;;;5.00;;
8714;SDS011;4394;51.208;8.904;2022-07-24T17:36:40;5.30;;;4.90;;
8714;SDS011;4394;51.208;8.904;2022-07-24T17:39:30;6.38;;;5.28;;